sensor_id;sensor_type;location;lat;lon;timestamp;P1;durP1;ratioP1;P2;durP2;ratioP2
56457;SDS011;42360;42.918;12.366;2023-03-09T11:45:00;9.10;;;2.67;;
56457;SDS011;42360;42.918;12.366;2023-03-09T11:50:04;11.48;;;2.65;;
56457;SDS011;42360;42.918;12.366;2023-03-09T11:52:35;5.40;;;2.80;;
56457;SDS011;42360;42.918;12.366;2023-03-09T11:55:14;6.13;;;3.13;;
56457;SDS011;42360;42.918;12.366;2023-03-09T11:57:43;3.35;;;2.10;;
56457;SDS011;42360;42.918;12.366;2023-03-09T12:00:12;3.78;;;2.25;;
56457;SDS011;42360;42.918;12.366;2023-03-09T12:02:51;8.23;;;2.22;;
56457;SDS011;42360;42.918;12.366;2023-03-09T12:05:21;7.35;;;2.95;;
56457;SDS011;42360;42.918;12.366;2023-03-09T12:10:21;6.00;;;3.00;;
56457;SDS011;42360;42.918;12.366;2023-03-09T12:18:06;7.57;;;2.05;;
56457;SDS011;42360;42.918;12.366;2023-03-09T12:20:41;4.97;;;2.20;;
56457;SDS011;42360;42.918;12.366;2023-03-09T12:28:28;3.78;;;2.00;;
56457;SDS011;42360;42.918;12.366;2023-03-09T12:30:54;4.60;;;2.88;;
56457;SDS011;42360;42.918;12.366;2023-03-09T12:36:23;8.02;;;3.47;;
56457;SDS011;42360;42.918;12.366;2023-03-09T12:49:54;3.85;;;2.85;;
56457;SDS011;42360;42.918;12.366;2023-03-09T12:52:33;6.60;;;3.50;;
56457;SDS011;42360;42.918;12.366;2023-03-09T12:55:18;5.93;;;3.40;;
56457;SDS011;42360;42.918;12.366;2023-03-09T12:57:52;6.35;;;2.75;;
56457;SDS011;42360;42.918;12.366;2023-03-09T13:03:25;5.88;;;3.65;;
56457;SDS011;42360;42.918;12.366;2023-03-09T13:05:53;8.50;;;3.67;;
56457;SDS011;42360;42.918;12.366;2023-03-09T13:08:33;9.23;;;3.72;;
56457;SDS011;42360;42.918;12.366;2023-03-09T13:21:42;9.20;;;5.13;;
56457;SDS011;42360;42.918;12.366;2023-03-09T13:27:05;5.77;;;2.87;;
56457;SDS011;42360;42.918;12.366;2023-03-09T13:35:11;9.23;;;3.05;;
56457;SDS011;42360;42.918;12.366;2023-03-09T13:37:41;5.18;;;2.40;;
56457;SDS011;42360;42.918;12.366;2023-03-09T13:40:29;4.43;;;3.00;;
56457;SDS011;42360;42.918;12.366;2023-03-09T13:42:54;7.68;;;3.92;;
56457;SDS011;42360;42.918;12.366;2023-03-09T13:45:22;8.32;;;3.72;;
56457;SDS011;42360;42.918;12.366;2023-03-09T13:47:53;5.13;;;2.17;;
56457;SDS011;42360;42.918;12.366;2023-03-09T13:50:27;5.65;;;2.45;;
56457;SDS011;42360;42.918;12.366;2023-03-09T13:55:25;9.70;;;3.08;;
56457;SDS011;42360;42.918;12.366;2023-03-09T13:57:52;7.05;;;2.60;;
56457;SDS011;42360;42.918;12.366;2023-03-09T14:00:22;6.88;;;2.75;;
56457;SDS011;42360;42.918;12.366;2023-03-09T14:02:54;9.38;;;3.58;;
56457;SDS011;42360;42.918;12.366;2023-03-09T14:05:20;6.57;;;3.50;;
56457;SDS011;42360;42.918;12.366;2023-03-09T14:07:49;5.90;;;2.92;;
56457;SDS011;42360;42.918;12.366;2023-03-09T14:10:31;6.18;;;3.22;;
56457;SDS011;42360;42.918;12.366;2023-03-09T14:15:31;8.30;;;2.30;;
56457;SDS011;42360;42.918;12.366;2023-03-09T14:17:56;7.90;;;1.60;;
56457;SDS011;42360;42.918;12.366;2023-03-09T14:20:28;2.22;;;1.25;;
56457;SDS011;42360;42.918;12.366;2023-03-09T14:23:17;4.50;;;2.03;;
56457;SDS011;42360;42.918;12.366;2023-03-09T14:25:57;5.35;;;2.90;;
56457;SDS011;42360;42.918;12.366;2023-03-09T14:28:27;6.85;;;2.00;;
56457;SDS011;42360;42.918;12.366;2023-03-09T14:30:54;6.95;;;2.22;;
56457;SDS011;42360;42.918;12.366;2023-03-09T14:33:24;5.65;;;2.00;;
56457;SDS011;42360;42.918;12.366;2023-03-09T14:36:07;4.28;;;1.52;;
56457;SDS011;42360;42.918;12.366;2023-03-09T14:38:40;4.28;;;1.83;;
56457;SDS011;42360;42.918;12.366;2023-03-09T14:41:20;6.15;;;1.55;;
56457;SDS011;42360;42.918;12.366;2023-03-09T14:43:47;4.32;;;1.65;;
56457;SDS011;42360;42.918;12.366;2023-03-09T14:46:21;4.55;;;1.30;;
56457;SDS011;42360;42.918;12.366;2023-03-09T14:48:59;2.25;;;1.45;;
56457;SDS011;42360;42.918;12.366;2023-03-09T14:51:29;6.80;;;2.38;;
56457;SDS011;42360;42.918;12.366;2023-03-09T14:56:29;5.15;;;3.05;;
56457;SDS011;42360;42.918;12.366;2023-03-09T14:58:55;6.90;;;2.35;;
56457;SDS011;42360;42.918;12.366;2023-03-09T15:01:23;5.28;;;2.78;;
56457;SDS011;42360;42.918;12.366;2023-03-09T15:03:49;6.07;;;2.95;;
56457;SDS011;42360;42.918;12.366;2023-03-09T15:06:15;8.05;;;3.00;;
56457;SDS011;42360;42.918;12.366;2023-03-09T15:08:40;11.63;;;2.72;;
56457;SDS011;42360;42.918;12.366;2023-03-09T15:11:06;6.57;;;3.17;;
56457;SDS011;42360;42.918;12.366;2023-03-09T15:13:31;5.57;;;2.40;;
56457;SDS011;42360;42.918;12.366;2023-03-09T15:15:58;8.50;;;3.25;;
56457;SDS011;42360;42.918;12.366;2023-03-09T15:18:23;11.68;;;2.70;;
56457;SDS011;42360;42.918;12.366;2023-03-09T15:20:49;6.50;;;2.42;;
56457;SDS011;42360;42.918;12.366;2023-03-09T15:23:14;5.03;;;2.22;;
56457;SDS011;42360;42.918;12.366;2023-03-09T15:25:40;9.85;;;2.25;;
56457;SDS011;42360;42.918;12.366;2023-03-09T15:28:07;10.95;;;2.60;;
56457;SDS011;42360;42.918;12.366;2023-03-09T15:30:33;1.90;;;1.30;;
56457;SDS011;42360;42.918;12.366;2023-03-09T15:32:59;9.85;;;2.40;;
56457;SDS011;42360;42.918;12.366;2023-03-09T15:35:25;12.25;;;4.53;;
56457;SDS011;42360;42.918;12.366;2023-03-09T15:37:50;6.93;;;2.05;;
56457;SDS011;42360;42.918;12.366;2023-03-09T15:40:16;4.05;;;1.67;;
56457;SDS011;42360;42.918;12.366;2023-03-09T15:42:43;4.07;;;1.83;;
56457;SDS011;42360;42.918;12.366;2023-03-09T15:45:10;6.75;;;2.35;;
56457;SDS011;42360;42.918;12.366;2023-03-09T15:47:37;7.22;;;3.38;;
56457;SDS011;42360;42.918;12.366;2023-03-09T15:50:04;8.02;;;2.58;;
56457;SDS011;42360;42.918;12.366;2023-03-09T15:52:32;3.33;;;1.52;;
56457;SDS011;42360;42.918;12.366;2023-03-09T15:54:58;2.22;;;1.70;;
56457;SDS011;42360;42.918;12.366;2023-03-09T15:57:23;2.75;;;1.70;;
56457;SDS011;42360;42.918;12.366;2023-03-09T15:59:49;2.33;;;1.45;;
56457;SDS011;42360;42.918;12.366;2023-03-09T16:02:16;5.35;;;2.22;;
56457;SDS011;42360;42.918;12.366;2023-03-09T16:04:43;9.05;;;2.25;;
56457;SDS011;42360;42.918;12.366;2023-03-09T16:07:08;4.25;;;1.88;;
56457;SDS011;42360;42.918;12.366;2023-03-09T16:09:34;5.43;;;2.67;;
56457;SDS011;42360;42.918;12.366;2023-03-09T16:11:59;11.25;;;2.63;;
56457;SDS011;42360;42.918;12.366;2023-03-09T16:14:25;5.95;;;2.72;;
56457;SDS011;42360;42.918;12.366;2023-03-09T16:16:50;7.78;;;2.78;;
56457;SDS011;42360;42.918;12.366;2023-03-09T16:19:16;5.28;;;2.38;;
56457;SDS011;42360;42.918;12.366;2023-03-09T16:21:41;9.73;;;2.55;;
56457;SDS011;42360;42.918;12.366;2023-03-09T16:24:07;3.67;;;2.22;;
56457;SDS011;42360;42.918;12.366;2023-03-09T16:26:32;7.85;;;3.05;;
56457;SDS011;42360;42.918;12.366;2023-03-09T16:28:58;6.43;;;2.95;;
56457;SDS011;42360;42.918;12.366;2023-03-09T16:31:24;10.50;;;4.88;;
56457;SDS011;42360;42.918;12.366;2023-03-09T16:33:52;8.30;;;2.42;;
56457;SDS011;42360;42.918;12.366;2023-03-09T16:36:18;6.97;;;2.78;;
56457;SDS011;42360;42.918;12.366;2023-03-09T16:38:44;6.60;;;2.55;;
56457;SDS011;42360;42.918;12.366;2023-03-09T16:41:11;5.65;;;2.53;;
56457;SDS011;42360;42.918;12.366;2023-03-09T16:43:37;11.02;;;2.88;;
56457;SDS011;42360;42.918;12.366;2023-03-09T16:46:03;9.40;;;2.97;;
56457;SDS011;42360;42.918;12.366;2023-03-09T16:48:29;10.77;;;3.15;;
56457;SDS011;42360;42.918;12.366;2023-03-09T16:50:55;6.60;;;2.15;;
56457;SDS011;42360;42.918;12.366;2023-03-09T16:53:22;7.03;;;2.85;;
56457;SDS011;42360;42.918;12.366;2023-03-09T16:55:57;7.07;;;2.95;;
56457;SDS011;42360;42.918;12.366;2023-03-09T16:58:25;6.40;;;2.45;;
56457;SDS011;42360;42.918;12.366;2023-03-09T17:00:51;5.03;;;2.15;;
56457;SDS011;42360;42.918;12.366;2023-03-09T17:03:17;3.58;;;1.73;;
56457;SDS011;42360;42.918;12.366;2023-03-09T17:05:44;4.97;;;1.67;;
56457;SDS011;42360;42.918;12.366;2023-03-09T17:08:10;4.65;;;2.00;;
56457;SDS011;42360;42.918;12.366;2023-03-09T17:10:36;2.30;;;1.35;;
56457;SDS011;42360;42.918;12.366;2023-03-09T17:13:04;3.33;;;2.20;;
56457;SDS011;42360;42.918;12.366;2023-03-09T17:15:31;8.45;;;2.55;;
56457;SDS011;42360;42.918;12.366;2023-03-09T17:17:57;7.57;;;2.97;;
56457;SDS011;42360;42.918;12.366;2023-03-09T17:20:22;11.00;;;2.83;;
56457;SDS011;42360;42.918;12.366;2023-03-09T17:22:48;4.18;;;2.05;;
56457;SDS011;42360;42.918;12.366;2023-03-09T17:25:17;6.43;;;1.80;;
56457;SDS011;42360;42.918;12.366;2023-03-09T17:27:44;5.68;;;2.60;;
56457;SDS011;42360;42.918;12.366;2023-03-09T17:30:11;4.80;;;2.72;;
56457;SDS011;42360;42.918;12.366;2023-03-09T17:32:38;5.53;;;2.22;;
56457;SDS011;42360;42.918;12.366;2023-03-09T17:35:03;7.78;;;2.45;;
56457;SDS011;42360;42.918;12.366;2023-03-09T17:37:29;7.45;;;2.85;;
56457;SDS011;42360;42.918;12.366;2023-03-09T17:39:55;9.80;;;3.10;;
56457;SDS011;42360;42.918;12.366;2023-03-09T17:42:21;5.18;;;2.22;;
56457;SDS011;42360;42.918;12.366;2023-03-09T17:44:47;3.13;;;2.05;;
56457;SDS011;42360;42.918;12.366;2023-03-09T17:47:12;3.70;;;2.50;;
56457;SDS011;42360;42.918;12.366;2023-03-09T17:49:38;8.73;;;3.38;;
56457;SDS011;42360;42.918;12.366;2023-03-09T17:52:04;6.20;;;2.83;;
56457;SDS011;42360;42.918;12.366;2023-03-09T17:54:31;10.52;;;1.85;;
56457;SDS011;42360;42.918;12.366;2023-03-09T17:56:56;6.70;;;2.65;;
56457;SDS011;42360;42.918;12.366;2023-03-09T17:59:22;12.80;;;3.45;;
56457;SDS011;42360;42.918;12.366;2023-03-09T18:01:48;3.25;;;1.67;;
56457;SDS011;42360;42.918;12.366;2023-03-09T18:04:13;5.10;;;1.58;;
56457;SDS011;42360;42.918;12.366;2023-03-09T18:06:39;1.50;;;1.40;;
56457;SDS011;42360;42.918;12.366;2023-03-09T18:09:04;8.73;;;2.20;;
56457;SDS011;42360;42.918;12.366;2023-03-09T18:11:31;1.92;;;1.73;;
56457;SDS011;42360;42.918;12.366;2023-03-09T18:13:58;2.97;;;1.90;;
56457;SDS011;42360;42.918;12.366;2023-03-09T18:16:25;3.70;;;1.45;;
56457;SDS011;42360;42.918;12.366;2023-03-09T18:18:51;2.80;;;1.85;;
56457;SDS011;42360;42.918;12.366;2023-03-09T18:21:22;2.95;;;1.80;;
56457;SDS011;42360;42.918;12.366;2023-03-09T18:23:48;2.22;;;1.13;;
56457;SDS011;42360;42.918;12.366;2023-03-09T18:26:15;4.13;;;1.33;;
56457;SDS011;42360;42.918;12.366;2023-03-09T18:28:43;2.90;;;1.50;;
56457;SDS011;42360;42.918;12.366;2023-03-09T18:31:08;2.17;;;1.80;;
56457;SDS011;42360;42.918;12.366;2023-03-09T18:33:34;7.47;;;2.75;;
56457;SDS011;42360;42.918;12.366;2023-03-09T18:36:05;5.22;;;1.48;;
56457;SDS011;42360;42.918;12.366;2023-03-09T18:38:33;2.75;;;1.17;;
56457;SDS011;42360;42.918;12.366;2023-03-09T18:40:59;7.10;;;2.25;;
56457;SDS011;42360;42.918;12.366;2023-03-09T18:43:25;4.68;;;1.58;;
56457;SDS011;42360;42.918;12.366;2023-03-09T18:45:50;1.73;;;1.20;;
56457;SDS011;42360;42.918;12.366;2023-03-09T18:48:16;10.10;;;2.63;;
56457;SDS011;42360;42.918;12.366;2023-03-09T18:50:42;4.45;;;2.08;;
56457;SDS011;42360;42.918;12.366;2023-03-09T18:53:08;6.90;;;2.05;;
56457;SDS011;42360;42.918;12.366;2023-03-09T18:55:35;3.50;;;1.60;;
56457;SDS011;42360;42.918;12.366;2023-03-09T18:58:01;7.93;;;2.42;;
56457;SDS011;42360;42.918;12.366;2023-03-09T19:00:27;2.45;;;1.52;;
56457;SDS011;42360;42.918;12.366;2023-03-09T19:02:52;6.15;;;1.42;;
56457;SDS011;42360;42.918;12.366;2023-03-09T19:05:18;5.82;;;1.90;;
56457;SDS011;42360;42.918;12.366;2023-03-09T19:07:43;3.85;;;1.73;;
56457;SDS011;42360;42.918;12.366;2023-03-09T19:10:09;4.13;;;1.90;;
56457;SDS011;42360;42.918;12.366;2023-03-09T19:12:35;6.65;;;2.67;;
56457;SDS011;42360;42.918;12.366;2023-03-09T19:15:00;4.60;;;2.88;;
56457;SDS011;42360;42.918;12.366;2023-03-09T19:17:26;10.95;;;2.75;;
56457;SDS011;42360;42.918;12.366;2023-03-09T19:19:51;9.00;;;3.42;;
56457;SDS011;42360;42.918;12.366;2023-03-09T19:22:18;9.27;;;2.40;;
56457;SDS011;42360;42.918;12.366;2023-03-09T19:24:46;4.57;;;2.30;;
56457;SDS011;42360;42.918;12.366;2023-03-09T19:27:12;8.02;;;2.70;;
56457;SDS011;42360;42.918;12.366;2023-03-09T19:29:38;5.80;;;2.40;;
56457;SDS011;42360;42.918;12.366;2023-03-09T19:32:04;6.60;;;2.40;;
56457;SDS011;42360;42.918;12.366;2023-03-09T19:34:30;4.00;;;2.05;;
56457;SDS011;42360;42.918;12.366;2023-03-09T19:36:55;6.82;;;2.50;;
56457;SDS011;42360;42.918;12.366;2023-03-09T19:39:21;8.32;;;2.50;;
56457;SDS011;42360;42.918;12.366;2023-03-09T19:41:47;6.90;;;2.17;;
56457;SDS011;42360;42.918;12.366;2023-03-09T19:44:13;10.18;;;2.72;;
56457;SDS011;42360;42.918;12.366;2023-03-09T19:46:39;9.13;;;3.22;;
56457;SDS011;42360;42.918;12.366;2023-03-09T19:49:05;4.28;;;2.33;;
56457;SDS011;42360;42.918;12.366;2023-03-09T19:51:30;9.82;;;3.33;;
56457;SDS011;42360;42.918;12.366;2023-03-09T19:54:01;2.95;;;2.00;;
56457;SDS011;42360;42.918;12.366;2023-03-09T19:56:32;5.55;;;1.85;;
56457;SDS011;42360;42.918;12.366;2023-03-09T19:58:59;4.90;;;2.47;;
56457;SDS011;42360;42.918;12.366;2023-03-09T20:01:27;3.97;;;2.45;;
56457;SDS011;42360;42.918;12.366;2023-03-09T20:03:54;4.50;;;2.38;;
56457;SDS011;42360;42.918;12.366;2023-03-09T20:06:21;4.22;;;2.15;;
56457;SDS011;42360;42.918;12.366;2023-03-09T20:08:48;3.45;;;1.27;;
56457;SDS011;42360;42.918;12.366;2023-03-09T20:11:16;8.68;;;3.83;;
56457;SDS011;42360;42.918;12.366;2023-03-09T20:13:43;7.05;;;2.42;;
56457;SDS011;42360;42.918;12.366;2023-03-09T20:16:12;5.97;;;3.13;;
56457;SDS011;42360;42.918;12.366;2023-03-09T20:18:39;11.27;;;2.13;;
56457;SDS011;42360;42.918;12.366;2023-03-09T20:21:05;6.20;;;2.58;;
56457;SDS011;42360;42.918;12.366;2023-03-09T20:23:33;12.35;;;3.47;;
56457;SDS011;42360;42.918;12.366;2023-03-09T20:26:00;5.78;;;1.98;;
56457;SDS011;42360;42.918;12.366;2023-03-09T20:28:27;7.80;;;2.85;;
56457;SDS011;42360;42.918;12.366;2023-03-09T20:30:53;3.58;;;2.50;;
56457;SDS011;42360;42.918;12.366;2023-03-09T20:33:18;3.65;;;2.30;;
56457;SDS011;42360;42.918;12.366;2023-03-09T20:35:44;9.13;;;3.55;;
56457;SDS011;42360;42.918;12.366;2023-03-09T20:38:09;5.47;;;2.65;;
56457;SDS011;42360;42.918;12.366;2023-03-09T20:40:35;2.25;;;1.52;;
56457;SDS011;42360;42.918;12.366;2023-03-09T20:43:01;7.65;;;2.97;;
56457;SDS011;42360;42.918;12.366;2023-03-09T20:45:26;5.53;;;1.83;;
56457;SDS011;42360;42.918;12.366;2023-03-09T20:47:52;3.08;;;1.60;;
56457;SDS011;42360;42.918;12.366;2023-03-09T20:50:17;3.25;;;2.03;;
56457;SDS011;42360;42.918;12.366;2023-03-09T20:52:43;3.00;;;2.10;;
56457;SDS011;42360;42.918;12.366;2023-03-09T20:55:14;2.33;;;1.90;;
56457;SDS011;42360;42.918;12.366;2023-03-09T20:57:40;5.57;;;3.33;;
56457;SDS011;42360;42.918;12.366;2023-03-09T21:00:06;6.75;;;2.38;;
56457;SDS011;42360;42.918;12.366;2023-03-09T21:02:32;5.53;;;1.88;;
56457;SDS011;42360;42.918;12.366;2023-03-09T21:04:58;3.60;;;2.65;;
56457;SDS011;42360;42.918;12.366;2023-03-09T21:07:23;10.38;;;2.50;;
56457;SDS011;42360;42.918;12.366;2023-03-09T21:09:49;5.75;;;2.58;;
56457;SDS011;42360;42.918;12.366;2023-03-09T21:12:15;3.10;;;1.90;;
56457;SDS011;42360;42.918;12.366;2023-03-09T21:14:40;11.18;;;2.22;;
56457;SDS011;42360;42.918;12.366;2023-03-09T21:17:06;2.70;;;2.17;;
56457;SDS011;42360;42.918;12.366;2023-03-09T21:19:31;7.28;;;3.53;;
56457;SDS011;42360;42.918;12.366;2023-03-09T21:21:59;10.45;;;4.32;;
56457;SDS011;42360;42.918;12.366;2023-03-09T21:24:25;4.18;;;2.25;;
56457;SDS011;42360;42.918;12.366;2023-03-09T21:26:53;5.78;;;3.15;;
56457;SDS011;42360;42.918;12.366;2023-03-09T21:29:19;6.75;;;3.05;;
56457;SDS011;42360;42.918;12.366;2023-03-09T21:31:44;9.85;;;4.03;;
56457;SDS011;42360;42.918;12.366;2023-03-09T21:34:10;8.00;;;2.92;;
56457;SDS011;42360;42.918;12.366;2023-03-09T21:36:35;9.30;;;3.95;;
56457;SDS011;42360;42.918;12.366;2023-03-09T21:39:01;11.25;;;3.30;;
56457;SDS011;42360;42.918;12.366;2023-03-09T21:41:28;8.05;;;3.63;;
56457;SDS011;42360;42.918;12.366;2023-03-09T21:43:53;2.30;;;2.10;;
56457;SDS011;42360;42.918;12.366;2023-03-09T21:46:19;3.88;;;3.47;;
56457;SDS011;42360;42.918;12.366;2023-03-09T21:48:49;9.40;;;4.78;;
56457;SDS011;42360;42.918;12.366;2023-03-09T21:51:15;19.00;;;5.90;;
56457;SDS011;42360;42.918;12.366;2023-03-09T21:53:41;4.82;;;3.60;;
56457;SDS011;42360;42.918;12.366;2023-03-09T21:56:06;7.03;;;2.65;;
56457;SDS011;42360;42.918;12.366;2023-03-09T21:58:32;3.22;;;2.38;;
56457;SDS011;42360;42.918;12.366;2023-03-09T22:00:58;3.75;;;2.30;;
56457;SDS011;42360;42.918;12.366;2023-03-09T22:03:24;2.00;;;1.85;;
56457;SDS011;42360;42.918;12.366;2023-03-09T22:05:50;6.97;;;3.67;;
56457;SDS011;42360;42.918;12.366;2023-03-09T22:08:16;8.75;;;3.70;;
56457;SDS011;42360;42.918;12.366;2023-03-09T22:10:42;10.73;;;3.50;;
56457;SDS011;42360;42.918;12.366;2023-03-09T22:13:08;5.70;;;2.95;;
56457;SDS011;42360;42.918;12.366;2023-03-09T22:15:34;7.85;;;3.05;;
56457;SDS011;42360;42.918;12.366;2023-03-09T22:18:00;9.32;;;4.75;;
56457;SDS011;42360;42.918;12.366;2023-03-09T22:20:26;5.32;;;2.78;;
56457;SDS011;42360;42.918;12.366;2023-03-09T22:22:52;7.47;;;3.42;;
56457;SDS011;42360;42.918;12.366;2023-03-09T22:25:18;7.72;;;3.30;;
56457;SDS011;42360;42.918;12.366;2023-03-09T22:27:44;9.13;;;4.78;;
56457;SDS011;42360;42.918;12.366;2023-03-09T22:30:11;11.45;;;3.92;;
56457;SDS011;42360;42.918;12.366;2023-03-09T22:32:38;7.57;;;3.38;;
56457;SDS011;42360;42.918;12.366;2023-03-09T22:35:04;10.07;;;3.70;;
56457;SDS011;42360;42.918;12.366;2023-03-09T22:37:31;8.70;;;3.60;;
56457;SDS011;42360;42.918;12.366;2023-03-09T22:39:59;8.30;;;3.75;;
56457;SDS011;42360;42.918;12.366;2023-03-09T22:42:25;8.02;;;4.55;;
56457;SDS011;42360;42.918;12.366;2023-03-09T22:44:52;7.78;;;3.40;;
56457;SDS011;42360;42.918;12.366;2023-03-09T22:47:18;12.63;;;5.90;;
56457;SDS011;42360;42.918;12.366;2023-03-09T22:49:44;8.98;;;4.53;;
56457;SDS011;42360;42.918;12.366;2023-03-09T22:52:10;9.13;;;3.63;;
56457;SDS011;42360;42.918;12.366;2023-03-09T22:54:35;10.05;;;3.53;;
56457;SDS011;42360;42.918;12.366;2023-03-09T22:57:01;8.65;;;4.82;;
56457;SDS011;42360;42.918;12.366;2023-03-09T22:59:26;8.35;;;3.95;;
56457;SDS011;42360;42.918;12.366;2023-03-09T23:01:52;7.75;;;3.20;;
56457;SDS011;42360;42.918;12.366;2023-03-09T23:04:17;8.25;;;4.38;;
56457;SDS011;42360;42.918;12.366;2023-03-09T23:06:45;10.48;;;3.00;;
56457;SDS011;42360;42.918;12.366;2023-03-09T23:09:11;8.32;;;2.88;;
56457;SDS011;42360;42.918;12.366;2023-03-09T23:11:37;4.25;;;3.33;;
56457;SDS011;42360;42.918;12.366;2023-03-09T23:14:06;3.58;;;2.33;;
56457;SDS011;42360;42.918;12.366;2023-03-09T23:16:33;13.40;;;5.60;;
56457;SDS011;42360;42.918;12.366;2023-03-09T23:18:59;7.97;;;3.30;;
56457;SDS011;42360;42.918;12.366;2023-03-09T23:21:24;9.85;;;4.13;;
56457;SDS011;42360;42.918;12.366;2023-03-09T23:23:50;9.23;;;3.60;;
56457;SDS011;42360;42.918;12.366;2023-03-09T23:26:16;8.52;;;3.50;;
56457;SDS011;42360;42.918;12.366;2023-03-09T23:28:42;10.95;;;3.47;;
56457;SDS011;42360;42.918;12.366;2023-03-09T23:31:08;5.00;;;3.13;;
56457;SDS011;42360;42.918;12.366;2023-03-09T23:33:35;8.32;;;4.95;;
56457;SDS011;42360;42.918;12.366;2023-03-09T23:36:00;15.38;;;5.57;;
56457;SDS011;42360;42.918;12.366;2023-03-09T23:38:26;13.80;;;5.18;;
56457;SDS011;42360;42.918;12.366;2023-03-09T23:40:52;16.85;;;4.97;;
56457;SDS011;42360;42.918;12.366;2023-03-09T23:43:18;16.48;;;6.30;;
56457;SDS011;42360;42.918;12.366;2023-03-09T23:45:43;13.13;;;6.25;;
56457;SDS011;42360;42.918;12.366;2023-03-09T23:48:09;9.35;;;5.78;;
56457;SDS011;42360;42.918;12.366;2023-03-09T23:50:38;20.95;;;5.97;;
56457;SDS011;42360;42.918;12.366;2023-03-09T23:53:07;7.97;;;4.13;;
56457;SDS011;42360;42.918;12.366;2023-03-09T23:55:33;10.48;;;4.07;;
56457;SDS011;42360;42.918;12.366;2023-03-09T23:57:59;13.82;;;5.70;;
